Detalii statie COMAGRA BEREGSAU [00001994]

Toti senzorii

Date Temperatura solului [C]Precipitatii [mm]Voltaj baterie [mV]Leaf Wetness [Min]HC Air temperature [C]HC Relative humidity [%]Punctul de roua [C]
medieminmaxsumaultimatimpmedieminmaxmediemediemin
2018-12-09 16:00:00 3.8 3.7 4 0 6982 7.22 6.92 7.45 100 7.2 6.9
2018-12-09 17:00:00 4 3.9 4.1 0 6914 6.45 6.22 6.82 100 6.4 6.2
2018-12-09 18:00:00 4 4 4.1 0 6884 5.64 5.24 6.13 100 5.6 5.2
2018-12-09 19:00:00 4 4 4.1 0 6864 4.74 4.03 5.33 100 4.7 4
2018-12-09 20:00:00 4 3.9 4.1 0 6854 3.81 3.15 4.21 100 3.7 3.1
2018-12-09 21:00:00 3.9 3.9 4.1 0 6844 2.7 2.36 3.15 100 2.6 2.3
2018-12-09 22:00:00 3.7 3.6 3.9 0 6834 3.05 2.38 3.47 100 3 2.3
2018-12-09 23:00:00 3.6 3.6 3.8 0 6826 2.85 2.66 3.19 100 2.8 2.6
2018-12-10 00:00:00 3.6 3.5 3.8 0 6816 2.86 2.65 3.09 100 2.8 2.6
2018-12-10 01:00:00 3.6 3.5 3.8 0 6786 3.31 3.02 3.58 100 3.2 3
2018-12-10 02:00:00 3.6 3.5 3.7 0 6786 2.97 2.61 3.33 100 2.9 2.6
2018-12-10 03:00:00 3.5 3.4 3.7 0 6776 2.63 2.39 2.83 100 2.5 2.3
2018-12-10 04:00:00 3.4 3.3 3.6 0 6766 2.46 2.25 2.67 100 2.4 2.2
2018-12-10 05:00:00 3.4 3.3 3.5 0 6766 2.37 1.92 2.73 100 2.3 1.9
2018-12-10 06:00:00 3.3 3.3 3.5 0 6756 2.28 1.93 2.98 100 2.2 1.9
2018-12-10 07:00:00 3.3 3.3 3.4 0 6748 3.26 2.96 3.69 100 3.2 2.9
2018-12-10 08:00:00 3.3 3.3 3.5 0 6738 4.75 4.29 5.17 100 4.7 4.2
2018-12-10 09:00:00 3.4 3.3 3.6 0 6748 4.22 4.08 4.37 100 4.1 4
2018-12-10 10:00:00 3.4 3.4 3.5 0 6786 4.46 3.86 5.43 100 4.4 3.8
2018-12-10 11:00:00 3.4 3.4 3.6 0 6826 6.52 5.6 7.25 100 6.4 5.6
2018-12-10 12:00:00 3.6 3.4 3.7 0 6874 7.69 7.22 7.97 100 7.6 7.2
2018-12-10 13:00:00 3.8 3.5 4.1 0 6952 8.14 7.57 8.31 98.48 7.8 6.4
2018-12-10 14:00:00 4.1 3.9 4.3 0 7098 8.54 8.01 9.01 90.84 7 6.4
2018-12-10 15:00:00 4.4 4.2 4.6 0 7020 8.34 7.51 8.83 89.18 6.5 6
2018-12-10 16:00:00 4.6 4.6 4.8 0 7060 7.09 6.57 7.53 94.34 6.1 5.1
2018-12-10 17:00:00 4.6 4.5 4.8 0 6942 5.55 4.58 6.5 95.25 4.7 4.5
2018-12-10 18:00:00 4.5 4.4 4.6 0 6894 4.3 4.12 4.43 100 4.2 4.1
2018-12-10 19:00:00 4.3 4.3 4.4 0 6874 3.56 3.12 4.25 100 3.5 3.1
2018-12-10 20:00:00 4.1 4 4.3 0 6844 2.05 1.35 2.97 100 2 1.3
2018-12-10 21:00:00 3.9 3.7 4.1 0 6834 0.74 0.36 1.38 100 0.6 0.3
2018-12-10 22:00:00 3.7 3.4 3.9 0 6826 0.37 0.17 0.48 100 0.3 0.1
2018-12-10 23:00:00 3.3 3.2 3.5 0 6816 0.26 0.13 0.35 100 0.2 0.1
2018-12-11 00:00:00 3.1 3 3.3 0 6806 -0.45 -0.69 0.04 100 -0.3 -0.5
2018-12-11 01:00:00 2.8 2.7 3 0 6786 -0.78 -0.99 -0.58 100 -0.6 -0.8
2018-12-11 02:00:00 2.7 2.6 2.8 0 6786 -0.77 -0.93 -0.64 100 -0.6 -0.8
2018-12-11 03:00:00 2.5 2.5 2.7 0 6776 -1.35 -1.51 -1.05 100 -1.2 -1.4
2018-12-11 04:00:00 2.4 2.4 2.6 0 6756 -1.37 -1.49 -1.21 100 -1.2 -1.3
2018-12-11 05:00:00 2.3 2.3 2.5 0 6756 -1.43 -1.73 -1.24 100 -1.2 -1.6
2018-12-11 06:00:00 2.2 2.1 2.4 0 6738 -2.01 -2.29 -1.7 100 -1.8 -2.1
2018-12-11 07:00:00 2.2 2.1 2.3 0 6728 -2.48 -2.64 -2.3 100 -2.3 -2.5
2018-12-11 08:00:00 2.1 2 2.2 0 6718 -2.88 -3.15 -2.7 100 -2.7 -3
2018-12-11 09:00:00 2 2 2.2 0 6738 -3.19 -3.34 -2.85 100 -3 -3.2
2018-12-11 10:00:00 1.9 1.9 2 0 6766 -2.08 -2.72 -1.19 100 -1.9 -2.6
2018-12-11 11:00:00 1.8 1.8 1.9 0 6816 -0.3 -1.06 0.6 100 -0.2 -0.9
2018-12-11 12:00:00 1.8 1.7 2 0 6894 1.38 0.84 2.68 100 1.3 0.8
2018-12-11 13:00:00 1.7 1.7 1.9 0.2 7060 3.11 2.49 4.47 100 3 2.4
2018-12-11 14:00:00 1.7 1.7 1.9 0 7060 4.64 4.3 5.19 98.83 4.3 3.9
2018-12-11 15:00:00 1.9 1.9 2.1 0 7020 4.78 4.48 5.42 96.95 4.2 3.7